createdAt,value
2022-11-02T00:00:34.606Z,90.60
2022-11-02T00:03:02.776Z,89.50
2022-11-02T00:05:31.146Z,90.70
2022-11-02T00:07:59.204Z,90.90
2022-11-02T00:10:27.078Z,90.70
2022-11-02T00:12:54.909Z,86.80
2022-11-02T00:15:25.285Z,90.90
2022-11-02T00:17:56.908Z,90.90
2022-11-02T00:20:26.238Z,90.80
2022-11-02T00:22:57.043Z,89.10
2022-11-02T00:25:26.821Z,90.80
2022-11-02T00:27:54.757Z,90.80
2022-11-02T00:30:22.862Z,90.70
2022-11-02T00:32:51.922Z,90.30
2022-11-02T00:35:21.126Z,90.80
2022-11-02T00:37:48.985Z,90.90
2022-11-02T00:40:17.062Z,91.00
2022-11-02T00:42:44.970Z,91.10
2022-11-02T00:45:12.873Z,91.10
2022-11-02T00:47:40.718Z,91.10
2022-11-02T00:50:09.722Z,91.20
2022-11-02T00:52:42.266Z,91.10
2022-11-02T00:55:11.905Z,91.10
2022-11-02T00:57:40.557Z,91.00
2022-11-02T01:00:10.502Z,91.10
2022-11-02T01:02:38.907Z,91.10
2022-11-02T01:05:08.298Z,91.10
2022-11-02T01:07:37.507Z,90.60
2022-11-02T01:10:07.321Z,91.10
2022-11-02T01:12:37.322Z,91.10
2022-11-02T01:15:06.704Z,91.10
2022-11-02T01:17:34.617Z,91.10
2022-11-02T01:20:02.733Z,90.60
2022-11-02T01:22:30.707Z,91.00
2022-11-02T01:24:58.572Z,91.10
2022-11-02T01:27:27.801Z,91.20
2022-11-02T01:29:55.729Z,91.10
2022-11-02T01:32:23.601Z,91.10
2022-11-02T01:34:51.539Z,91.10
2022-11-02T01:37:19.398Z,91.00
2022-11-02T01:39:47.265Z,89.80
2022-11-02T01:42:19.469Z,90.70
2022-11-02T01:44:48.785Z,91.30
2022-11-02T01:47:21.368Z,90.90
2022-11-02T01:49:52.774Z,91.00
2022-11-02T01:52:23.566Z,91.20
2022-11-02T01:54:55.653Z,91.20
2022-11-02T01:57:24.214Z,91.10
2022-11-02T01:59:58.202Z,91.10
2022-11-02T02:02:28.055Z,91.30
2022-11-02T02:05:02.958Z,91.20
2022-11-02T02:07:32.384Z,91.20
2022-11-02T02:10:01.484Z,91.20
2022-11-02T02:12:30.250Z,91.10
2022-11-02T02:15:00.605Z,91.10
2022-11-02T02:17:38.679Z,91.10
2022-11-02T02:20:12.851Z,91.20
2022-11-02T02:23:20.236Z,91.10
2022-11-02T02:26:24.465Z,91.20
2022-11-02T02:28:56.796Z,91.20
2022-11-02T02:31:32.669Z,91.20
2022-11-02T02:34:05.248Z,91.30
2022-11-02T02:36:37.381Z,91.20
2022-11-02T02:39:11.316Z,91.30
2022-11-02T02:41:41.145Z,91.30
2022-11-02T02:44:13.990Z,91.30
2022-11-02T02:46:46.669Z,91.30
2022-11-02T02:49:19.363Z,91.30
2022-11-02T02:51:48.705Z,91.40
2022-11-02T02:54:20.150Z,91.50
2022-11-02T02:56:53.066Z,91.50
2022-11-02T02:59:25.767Z,91.60
2022-11-02T03:01:55.482Z,91.60
2022-11-02T03:04:23.664Z,91.50
2022-11-02T03:06:55.104Z,91.50
2022-11-02T03:09:30.485Z,91.50
2022-11-02T03:12:10.490Z,91.50
2022-11-02T03:14:49.591Z,91.50
2022-11-02T03:17:20.612Z,91.40
2022-11-02T03:19:56.065Z,91.40
2022-11-02T03:22:31.224Z,90.80
2022-11-02T03:25:04.785Z,91.30
2022-11-02T03:27:39.619Z,91.20
2022-11-02T03:30:14.321Z,91.30
2022-11-02T03:32:50.906Z,91.30
2022-11-02T03:35:23.701Z,91.30
2022-11-02T03:37:57.102Z,91.40
2022-11-02T03:40:29.909Z,91.40
2022-11-02T03:42:58.936Z,91.30
2022-11-02T03:45:36.517Z,91.80
2022-11-02T03:48:08.618Z,91.60
2022-11-02T03:50:39.502Z,91.60
2022-11-02T03:53:11.549Z,90.60
2022-11-02T03:55:44.078Z,91.50
2022-11-02T03:58:13.134Z,91.50
2022-11-02T04:00:49.322Z,91.50
2022-11-02T04:03:18.775Z,91.00
2022-11-02T04:05:46.753Z,91.60
2022-11-02T04:08:24.452Z,91.50
2022-11-02T04:11:12.216Z,91.50
2022-11-02T04:13:57.530Z,91.80
2022-11-02T04:16:28.206Z,91.30
2022-11-02T04:19:14.572Z,91.80
2022-11-02T04:22:02.532Z,91.10
2022-11-02T04:24:47.785Z,91.70
2022-11-02T04:27:20.517Z,91.70
2022-11-02T04:29:48.898Z,91.60
2022-11-02T04:32:38.756Z,90.60
2022-11-02T04:35:06.975Z,91.60
2022-11-02T04:37:57.219Z,91.10
2022-11-02T04:40:25.129Z,90.30
2022-11-02T04:42:53.305Z,91.20
2022-11-02T04:45:21.609Z,91.50
2022-11-02T04:47:50.835Z,91.40
2022-11-02T04:50:18.854Z,91.40
2022-11-02T04:52:46.733Z,91.50
2022-11-02T04:55:14.630Z,91.40
2022-11-02T04:57:46.461Z,91.60
2022-11-02T05:00:15.649Z,91.20
2022-11-02T05:02:43.704Z,90.70
2022-11-02T05:05:13.001Z,91.50
2022-11-02T05:07:40.901Z,91.20
2022-11-02T05:10:09.713Z,91.50
2022-11-02T05:12:37.930Z,91.60
2022-11-02T05:15:06.624Z,91.40
2022-11-02T05:17:34.542Z,91.60
2022-11-02T05:20:02.680Z,91.20
2022-11-02T05:22:32.353Z,91.80
2022-11-02T05:25:00.231Z,92.10
2022-11-02T05:27:28.076Z,92.20
2022-11-02T05:29:55.917Z,91.90
2022-11-02T05:32:23.785Z,92.10
2022-11-02T05:34:51.651Z,92.20
2022-11-02T05:37:19.956Z,91.80
2022-11-02T05:39:50.477Z,92.00
2022-11-02T05:42:18.820Z,92.10
2022-11-02T05:44:46.663Z,92.00
2022-11-02T05:47:14.532Z,91.80
2022-11-02T05:49:42.393Z,91.60
2022-11-02T05:52:10.256Z,91.70
2022-11-02T05:54:38.109Z,91.80
2022-11-02T05:57:07.433Z,91.10
2022-11-02T05:59:35.425Z,91.70
2022-11-02T06:02:03.612Z,91.50
2022-11-02T06:04:31.517Z,91.40
2022-11-02T06:06:59.385Z,91.20
2022-11-02T06:09:27.624Z,90.70
2022-11-02T06:11:57.186Z,88.20
2022-11-02T06:14:26.616Z,91.30
2022-11-02T06:16:54.457Z,91.20
2022-11-02T06:19:22.297Z,90.90
2022-11-02T06:21:50.156Z,91.30
2022-11-02T06:24:18.332Z,91.30
2022-11-02T06:26:46.958Z,91.30
2022-11-02T06:29:14.987Z,91.60
2022-11-02T06:31:44.196Z,91.40
2022-11-02T06:34:12.073Z,91.40
2022-11-02T06:36:40.018Z,91.20
2022-11-02T06:39:07.840Z,91.20
2022-11-02T06:41:35.710Z,91.20
2022-11-02T06:44:03.703Z,91.10
2022-11-02T06:46:32.385Z,91.20
2022-11-02T06:49:01.817Z,91.10
2022-11-02T06:51:29.734Z,91.30
2022-11-02T06:53:57.590Z,91.50
2022-11-02T06:56:25.444Z,91.40
2022-11-02T06:58:53.348Z,91.50
2022-11-02T07:01:21.385Z,91.20
2022-11-02T07:03:49.306Z,91.30
2022-11-02T07:06:18.508Z,91.30
2022-11-02T07:08:46.390Z,91.20
2022-11-02T07:11:15.966Z,90.10
2022-11-02T07:13:44.480Z,91.30
2022-11-02T07:16:12.442Z,86.60
2022-11-02T07:18:40.849Z,88.30
2022-11-02T07:21:11.330Z,89.70
2022-11-02T07:23:40.625Z,90.40
2022-11-02T07:26:08.484Z,90.50
2022-11-02T07:28:38.152Z,89.50
2022-11-02T07:31:06.424Z,90.50
2022-11-02T07:33:34.290Z,88.20
2022-11-02T07:36:05.343Z,90.80
2022-11-02T07:38:33.223Z,90.20
2022-11-02T07:41:02.629Z,91.10
2022-11-02T07:43:30.521Z,91.10
2022-11-02T07:45:58.416Z,91.10
2022-11-02T07:48:26.277Z,91.60
2022-11-02T07:50:54.140Z,91.50
2022-11-02T07:53:22.268Z,92.00
2022-11-02T07:55:50.152Z,92.10
2022-11-02T07:58:19.410Z,91.90
2022-11-02T08:00:47.274Z,91.80
2022-11-02T08:03:15.662Z,87.30
2022-11-02T08:05:44.050Z,91.80
2022-11-02T08:08:14.062Z,92.00
2022-11-02T08:10:42.300Z,91.90
2022-11-02T08:13:10.626Z,89.90
2022-11-02T08:15:39.912Z,91.70
2022-11-02T08:18:10.534Z,91.80
2022-11-02T08:20:38.433Z,91.90
2022-11-02T08:23:07.534Z,91.60
2022-11-02T08:25:36.882Z,92.00
2022-11-02T08:28:06.104Z,91.90
2022-11-02T08:30:34.678Z,90.70
2022-11-02T08:33:08.447Z,86.40
2022-11-02T08:35:37.648Z,85.00
2022-11-02T08:38:06.757Z,85.40
2022-11-02T08:40:35.844Z,85.80
2022-11-02T08:43:05.512Z,85.30
2022-11-02T08:46:08.356Z,85.60
2022-11-02T08:48:24.731Z,86.10
2022-11-02T08:50:52.604Z,85.80
2022-11-02T08:53:20.520Z,85.50
2022-11-02T08:55:48.400Z,86.00
2022-11-02T08:58:16.301Z,85.60
2022-11-02T09:00:44.909Z,84.80
2022-11-02T09:03:14.338Z,85.70
2022-11-02T09:05:45.262Z,85.60
2022-11-02T09:08:14.662Z,85.30
2022-11-02T09:10:42.646Z,85.30
2022-11-02T09:13:13.467Z,85.30
2022-11-02T09:15:41.675Z,85.30
2022-11-02T09:18:10.162Z,85.50
2022-11-02T09:20:38.464Z,84.30
2022-11-02T09:23:07.669Z,85.00
2022-11-02T09:25:35.604Z,85.30
2022-11-02T09:28:04.263Z,85.00
2022-11-02T09:30:32.295Z,84.30
2022-11-02T09:33:01.985Z,84.30
2022-11-02T09:35:32.324Z,84.40
2022-11-02T09:38:00.301Z,84.40
2022-11-02T09:40:32.705Z,84.20
2022-11-02T09:43:07.856Z,84.20
2022-11-02T09:45:45.320Z,84.40
2022-11-02T09:48:22.166Z,84.00
2022-11-02T09:51:02.083Z,83.50
2022-11-02T09:53:38.754Z,83.80
2022-11-02T09:56:10.389Z,83.70
2022-11-02T09:58:41.262Z,83.90
2022-11-02T10:01:23.803Z,84.40
2022-11-02T10:04:06.191Z,83.30
2022-11-02T10:06:38.104Z,83.50
2022-11-02T10:09:10.389Z,83.40
2022-11-02T10:11:48.565Z,83.40
2022-11-02T10:14:21.257Z,82.50
2022-11-02T10:16:56.004Z,83.40
2022-11-02T10:19:27.763Z,83.60
2022-11-02T10:21:59.520Z,83.70
2022-11-02T10:24:34.382Z,83.40
2022-11-02T10:27:14.109Z,83.50
2022-11-02T10:29:49.600Z,84.10
2022-11-02T10:32:18.183Z,84.40
2022-11-02T10:34:58.741Z,83.50
2022-11-02T10:37:47.553Z,83.50
2022-11-02T10:40:25.569Z,83.30
2022-11-02T10:43:09.496Z,83.30
2022-11-02T10:46:09.876Z,83.70
2022-11-02T10:48:46.807Z,83.40
2022-11-02T10:51:16.208Z,83.00
2022-11-02T10:53:46.225Z,83.10
2022-11-02T10:56:18.116Z,81.70
2022-11-02T10:58:53.603Z,81.90
2022-11-02T11:01:21.557Z,81.90
2022-11-02T11:03:58.298Z,81.40
2022-11-02T11:06:28.630Z,79.60
2022-11-02T11:09:01.220Z,78.90
2022-11-02T11:11:31.998Z,79.30
2022-11-02T11:16:55.279Z,78.90
2022-11-02T11:22:23.373Z,78.10
2022-11-02T11:24:51.341Z,76.70
2022-11-02T11:27:20.496Z,76.00
2022-11-02T11:29:53.170Z,75.60
2022-11-02T11:32:28.816Z,76.00
2022-11-02T11:35:01.881Z,76.50
2022-11-02T11:37:30.265Z,76.10
2022-11-02T11:40:01.274Z,76.30
2022-11-02T11:42:33.129Z,76.50
2022-11-02T11:45:05.798Z,76.30
2022-11-02T11:47:37.484Z,76.10
2022-11-02T11:50:22.197Z,76.00
2022-11-02T11:53:11.757Z,76.30
2022-11-02T11:55:48.920Z,75.40
2022-11-02T11:58:21.779Z,74.90
2022-11-02T12:01:09.296Z,75.20
2022-11-02T12:03:53.684Z,75.50
2022-11-02T12:06:30.282Z,74.50
2022-11-02T12:09:07.337Z,75.00
2022-11-02T12:11:46.853Z,74.40
2022-11-02T12:14:38.582Z,74.50
2022-11-02T12:17:27.048Z,73.70
2022-11-02T12:20:14.549Z,73.70
2022-11-02T12:22:50.637Z,73.80
2022-11-02T12:25:28.687Z,73.80
2022-11-02T12:28:09.044Z,73.50
2022-11-02T12:30:49.782Z,73.60
2022-11-02T12:33:36.825Z,74.10
2022-11-02T12:36:13.678Z,74.20
2022-11-02T12:39:00.032Z,74.10
2022-11-02T12:41:38.999Z,73.70
2022-11-02T12:44:23.688Z,74.20
2022-11-02T12:47:00.811Z,74.70
2022-11-02T12:49:38.222Z,74.40
2022-11-02T12:52:15.237Z,74.20
2022-11-02T12:54:46.785Z,74.40
2022-11-02T12:57:17.971Z,73.20
2022-11-02T12:59:47.440Z,73.00
2022-11-02T13:02:20.010Z,72.50
2022-11-02T13:04:53.469Z,72.00
2022-11-02T13:07:26.359Z,72.40
2022-11-02T13:10:00.209Z,73.00
2022-11-02T13:12:28.835Z,71.50
2022-11-02T13:14:58.603Z,71.90
2022-11-02T13:17:32.201Z,72.10
2022-11-02T13:20:06.204Z,72.00
2022-11-02T13:22:39.102Z,72.40
2022-11-02T13:25:16.018Z,72.40
2022-11-02T13:27:49.764Z,72.50
2022-11-02T13:30:19.848Z,72.80
2022-11-02T13:32:53.509Z,72.50
2022-11-02T13:35:28.566Z,71.90
2022-11-02T13:38:04.606Z,72.50
2022-11-02T13:40:39.168Z,72.40
2022-11-02T13:43:35.284Z,71.40
2022-11-02T13:46:12.662Z,71.90
2022-11-02T13:48:50.069Z,72.00
2022-11-02T13:51:27.202Z,72.20
2022-11-02T13:53:59.945Z,74.00
2022-11-02T13:56:30.142Z,73.20
2022-11-02T13:59:04.606Z,73.10
2022-11-02T14:01:36.382Z,74.30
2022-11-02T14:04:07.810Z,75.20
2022-11-02T14:06:49.539Z,74.40
2022-11-02T14:09:27.548Z,75.10
2022-11-02T14:12:13.870Z,76.10
2022-11-02T14:14:41.869Z,76.00
2022-11-02T14:17:14.287Z,76.20
2022-11-02T14:19:56.320Z,76.90
2022-11-02T14:22:25.713Z,77.30
2022-11-02T14:25:20.580Z,77.50
2022-11-02T14:27:48.556Z,77.90
2022-11-02T14:30:44.029Z,78.20
2022-11-02T14:33:38.873Z,78.10
2022-11-02T14:36:11.234Z,78.20
2022-11-02T14:38:51.600Z,78.50
2022-11-02T14:41:44.411Z,78.60
2022-11-02T14:44:36.226Z,78.70
2022-11-02T14:47:08.550Z,79.20
2022-11-02T14:49:40.916Z,79.30
2022-11-02T14:52:21.918Z,79.70
2022-11-02T14:54:54.571Z,79.90
2022-11-02T14:57:27.401Z,80.30
2022-11-02T14:59:57.688Z,80.40
2022-11-02T15:02:30.887Z,80.60
2022-11-02T15:05:01.052Z,81.10
2022-11-02T15:07:35.860Z,81.60
2022-11-02T15:10:08.416Z,81.60
2022-11-02T15:12:39.684Z,81.70
2022-11-02T15:15:30.722Z,82.30
2022-11-02T15:18:22.567Z,82.10
2022-11-02T15:21:27.271Z,81.20
2022-11-02T15:24:16.615Z,76.90
2022-11-02T15:26:57.300Z,75.80
2022-11-02T15:29:38.486Z,74.60
2022-11-02T15:32:12.792Z,77.00
2022-11-02T15:34:43.875Z,77.20
2022-11-02T15:37:17.663Z,77.80
2022-11-02T15:39:50.038Z,76.60
2022-11-02T15:42:29.222Z,77.80
2022-11-02T15:45:42.604Z,78.40
2022-11-02T15:48:20.054Z,77.70
2022-11-02T15:50:59.364Z,78.80
2022-11-02T15:53:41.100Z,79.40
2022-11-02T15:56:33.865Z,79.50
2022-11-02T15:59:42.737Z,78.00
2022-11-02T16:02:19.621Z,80.90
2022-11-02T16:04:49.226Z,81.20
2022-11-02T16:07:18.798Z,80.30
2022-11-02T16:09:48.008Z,82.70
2022-11-02T16:12:18.768Z,79.90
2022-11-02T16:14:55.840Z,78.70
2022-11-02T16:17:25.697Z,77.80
2022-11-02T16:19:54.555Z,76.90
2022-11-02T16:22:26.767Z,76.00
2022-11-02T16:24:55.428Z,75.40
2022-11-02T16:27:24.073Z,76.60
2022-11-02T16:29:53.504Z,76.90
2022-11-02T16:32:22.271Z,77.30
2022-11-02T16:34:50.235Z,76.70
2022-11-02T16:37:20.037Z,77.80
2022-11-02T16:39:48.470Z,79.40
2022-11-02T16:42:18.811Z,78.50
2022-11-02T16:44:57.134Z,81.30
2022-11-02T16:47:42.654Z,82.40
2022-11-02T16:50:21.888Z,82.40
2022-11-02T16:52:56.350Z,83.50
2022-11-02T16:55:38.601Z,82.60
2022-11-02T16:58:09.266Z,79.40
2022-11-02T17:00:38.841Z,81.10
2022-11-02T17:03:14.776Z,81.70
2022-11-02T17:05:45.065Z,81.30
2022-11-02T17:08:28.546Z,80.40
2022-11-02T17:10:58.624Z,78.70
2022-11-02T17:13:27.703Z,80.60
2022-11-02T17:16:03.796Z,85.10
2022-11-02T17:18:31.700Z,85.00
2022-11-02T17:21:25.274Z,81.00
2022-11-02T17:23:53.851Z,82.30
2022-11-02T17:26:31.296Z,83.30
2022-11-02T17:29:00.449Z,83.40
2022-11-02T17:31:34.927Z,82.10
2022-11-02T17:34:11.592Z,79.80
2022-11-02T17:36:43.432Z,79.80
2022-11-02T17:39:13.164Z,80.90
2022-11-02T17:41:58.783Z,86.10
2022-11-02T17:44:26.632Z,87.30
2022-11-02T17:46:56.743Z,84.40
2022-11-02T17:49:24.591Z,83.50
2022-11-02T17:51:52.466Z,83.10
2022-11-02T17:54:20.358Z,84.20
2022-11-02T17:56:48.202Z,82.40
2022-11-02T17:59:16.058Z,83.40
2022-11-02T18:01:44.081Z,86.00
2022-11-02T18:04:13.397Z,85.60
2022-11-02T18:06:41.272Z,84.90
2022-11-02T18:09:13.770Z,85.30
2022-11-02T18:11:42.096Z,87.50
2022-11-02T18:14:15.594Z,88.00
2022-11-02T18:16:44.175Z,85.50
2022-11-02T18:19:13.744Z,85.60
2022-11-02T18:21:41.606Z,88.30
2022-11-02T18:24:10.878Z,88.20
2022-11-02T18:26:41.405Z,87.50
2022-11-02T18:29:12.210Z,87.40
2022-11-02T18:31:40.127Z,84.90
2022-11-02T18:34:08.012Z,86.90
2022-11-02T18:36:39.660Z,89.10
2022-11-02T18:39:07.699Z,89.00
2022-11-02T18:41:36.972Z,84.60
2022-11-02T18:44:11.966Z,87.10
2022-11-02T18:46:42.695Z,89.50
2022-11-02T18:49:10.721Z,89.30
2022-11-02T18:51:42.905Z,86.80
2022-11-02T18:54:10.931Z,88.80
2022-11-02T18:56:38.952Z,89.20
2022-11-02T18:59:06.836Z,79.20
2022-11-02T19:01:34.839Z,86.40
2022-11-02T19:04:03.437Z,86.90
2022-11-02T19:06:50.358Z,84.80
2022-11-02T19:09:22.988Z,84.70
2022-11-02T19:11:53.885Z,89.20
2022-11-02T19:14:23.394Z,87.50
2022-11-02T19:16:51.329Z,86.70
2022-11-02T19:19:19.181Z,82.80
2022-11-02T19:21:47.068Z,82.20
2022-11-02T19:24:14.909Z,84.60
2022-11-02T19:26:44.168Z,89.50
2022-11-02T19:29:12.047Z,87.70
2022-11-02T19:31:39.939Z,89.70
2022-11-02T19:34:07.998Z,86.20
2022-11-02T19:36:35.961Z,88.90
2022-11-02T19:39:04.574Z,90.00
2022-11-02T19:41:32.481Z,89.20
2022-11-02T19:44:01.808Z,89.10
2022-11-02T19:46:29.765Z,87.50
2022-11-02T19:48:58.287Z,90.30
2022-11-02T19:51:28.230Z,89.90
2022-11-02T19:53:58.189Z,90.30
2022-11-02T19:56:27.533Z,83.60
2022-11-02T19:58:56.296Z,89.60
2022-11-02T20:01:27.578Z,85.00
2022-11-02T20:03:56.610Z,85.70
2022-11-02T20:06:25.774Z,90.30
2022-11-02T20:08:54.991Z,90.80
2022-11-02T20:11:24.133Z,90.30
2022-11-02T20:13:52.112Z,84.20
2022-11-02T20:16:21.362Z,85.00
2022-11-02T20:18:52.401Z,88.80
2022-11-02T20:21:23.050Z,89.70
2022-11-02T20:23:52.910Z,89.20
2022-11-02T20:26:23.022Z,90.70
2022-11-02T20:28:51.521Z,87.40
2022-11-02T20:31:20.985Z,84.60
2022-11-02T20:33:51.138Z,87.60
2022-11-02T20:36:19.121Z,88.90
2022-11-02T20:38:47.430Z,90.50
2022-11-02T20:41:17.063Z,87.20
2022-11-02T20:43:46.503Z,90.10
2022-11-02T20:46:36.579Z,90.00
2022-11-02T20:49:21.209Z,89.10
2022-11-02T20:51:54.256Z,90.20
2022-11-02T20:54:22.323Z,90.10
2022-11-02T20:56:51.082Z,90.20
2022-11-02T20:59:19.386Z,90.10
2022-11-02T21:01:47.437Z,90.10
2022-11-02T21:04:20.705Z,90.00
2022-11-02T21:06:50.012Z,89.00
2022-11-02T21:09:17.912Z,89.40
2022-11-02T21:12:03.335Z,89.50
2022-11-02T21:14:31.189Z,89.60
2022-11-02T21:16:59.113Z,88.10
2022-11-02T21:19:28.306Z,89.50
2022-11-02T21:21:59.663Z,90.00
2022-11-02T21:24:28.312Z,88.30
2022-11-02T21:26:56.365Z,82.30
2022-11-02T21:29:24.257Z,87.00
2022-11-02T21:31:52.105Z,90.10
2022-11-02T21:34:19.980Z,86.10
2022-11-02T21:36:49.872Z,90.50
2022-11-02T21:39:17.844Z,88.10
2022-11-02T21:41:45.782Z,87.30
2022-11-02T21:44:13.630Z,90.30
2022-11-02T21:46:41.979Z,90.30
2022-11-02T21:49:10.041Z,87.00
2022-11-02T21:51:38.484Z,89.80
2022-11-02T21:54:07.862Z,83.50
2022-11-02T21:56:36.847Z,86.80
2022-11-02T21:59:05.903Z,90.40
2022-11-02T22:01:48.104Z,89.90
2022-11-02T22:04:19.457Z,90.20
2022-11-02T22:06:47.337Z,90.80
2022-11-02T22:09:16.589Z,90.00
2022-11-02T22:11:44.973Z,90.10
2022-11-02T22:14:12.510Z,90.00
2022-11-02T22:16:42.465Z,88.60
2022-11-02T22:19:11.683Z,89.30
2022-11-02T22:21:42.896Z,90.30
2022-11-02T22:24:11.588Z,90.40
2022-11-02T22:26:41.363Z,89.80
2022-11-02T22:29:09.700Z,90.30
2022-11-02T22:31:39.475Z,88.10
2022-11-02T22:34:08.960Z,89.30
2022-11-02T22:36:37.730Z,90.50
2022-11-02T22:39:06.467Z,88.70
2022-11-02T22:41:36.560Z,87.20
2022-11-02T22:44:07.599Z,90.70
2022-11-02T22:46:37.711Z,90.60
2022-11-02T22:49:06.119Z,90.40
2022-11-02T22:51:36.163Z,90.40
2022-11-02T22:54:05.784Z,90.30
2022-11-02T22:56:34.576Z,84.60
2022-11-02T22:59:02.862Z,89.60
2022-11-02T23:01:33.241Z,85.10
2022-11-02T23:04:02.115Z,84.40
2022-11-02T23:06:30.162Z,88.70
2022-11-02T23:08:59.567Z,87.90
2022-11-02T23:11:29.468Z,85.40
2022-11-02T23:13:59.047Z,90.50
2022-11-02T23:16:28.916Z,90.30
2022-11-02T23:19:20.623Z,91.00
2022-11-02T23:22:08.966Z,88.60
2022-11-02T23:24:54.225Z,90.10
2022-11-02T23:27:22.110Z,88.40
2022-11-02T23:30:03.873Z,89.30
2022-11-02T23:32:31.937Z,90.30
2022-11-02T23:35:18.638Z,87.60
2022-11-02T23:37:47.452Z,90.50
2022-11-02T23:40:18.905Z,82.80
2022-11-02T23:42:46.768Z,90.70
2022-11-02T23:45:14.668Z,89.40
2022-11-02T23:48:00.247Z,90.50
2022-11-02T23:50:49.757Z,90.60
2022-11-02T23:53:36.714Z,89.50
2022-11-02T23:56:23.007Z,90.70
2022-11-02T23:59:06.359Z,90.60
